sensor_id;sensor_type;location;lat;lon;timestamp;P1;durP1;ratioP1;P2;durP2;ratioP2
19798;SDS011;10059;59.850;10.454;2023-05-10T00:01:34;13.87;;;5.80;;
19798;SDS011;10059;59.850;10.454;2023-05-10T00:04:01;22.97;;;6.10;;
19798;SDS011;10059;59.850;10.454;2023-05-10T00:06:28;17.13;;;5.60;;
19798;SDS011;10059;59.850;10.454;2023-05-10T00:08:56;14.23;;;5.20;;
19798;SDS011;10059;59.850;10.454;2023-05-10T00:11:23;18.90;;;5.03;;
19798;SDS011;10059;59.850;10.454;2023-05-10T00:13:50;19.53;;;5.07;;
19798;SDS011;10059;59.850;10.454;2023-05-10T00:16:17;17.87;;;5.60;;
19798;SDS011;10059;59.850;10.454;2023-05-10T00:18:43;13.40;;;4.80;;
19798;SDS011;10059;59.850;10.454;2023-05-10T00:21:10;18.47;;;5.57;;
19798;SDS011;10059;59.850;10.454;2023-05-10T00:23:38;15.30;;;4.80;;
19798;SDS011;10059;59.850;10.454;2023-05-10T00:26:06;11.73;;;5.10;;
19798;SDS011;10059;59.850;10.454;2023-05-10T00:28:33;15.37;;;4.50;;
19798;SDS011;10059;59.850;10.454;2023-05-10T00:31:00;12.20;;;5.07;;
19798;SDS011;10059;59.850;10.454;2023-05-10T00:33:27;22.37;;;5.20;;
19798;SDS011;10059;59.850;10.454;2023-05-10T00:35:53;14.07;;;5.00;;
19798;SDS011;10059;59.850;10.454;2023-05-10T00:38:20;18.13;;;5.03;;
19798;SDS011;10059;59.850;10.454;2023-05-10T00:40:47;11.70;;;5.33;;
19798;SDS011;10059;59.850;10.454;2023-05-10T00:43:15;13.47;;;5.23;;
19798;SDS011;10059;59.850;10.454;2023-05-10T00:45:42;17.47;;;5.63;;
19798;SDS011;10059;59.850;10.454;2023-05-10T00:48:09;20.30;;;6.03;;
19798;SDS011;10059;59.850;10.454;2023-05-10T00:50:36;16.73;;;5.40;;
19798;SDS011;10059;59.850;10.454;2023-05-10T00:53:05;11.07;;;5.17;;
19798;SDS011;10059;59.850;10.454;2023-05-10T00:55:32;19.97;;;5.40;;
19798;SDS011;10059;59.850;10.454;2023-05-10T00:57:59;14.87;;;5.13;;
19798;SDS011;10059;59.850;10.454;2023-05-10T01:00:27;16.80;;;5.60;;
19798;SDS011;10059;59.850;10.454;2023-05-10T01:02:54;13.13;;;5.17;;
19798;SDS011;10059;59.850;10.454;2023-05-10T01:05:21;15.53;;;4.93;;
19798;SDS011;10059;59.850;10.454;2023-05-10T01:07:48;15.53;;;5.23;;
19798;SDS011;10059;59.850;10.454;2023-05-10T01:10:15;12.83;;;5.00;;
19798;SDS011;10059;59.850;10.454;2023-05-10T01:12:42;14.10;;;5.07;;
19798;SDS011;10059;59.850;10.454;2023-05-10T01:15:11;16.80;;;5.07;;
19798;SDS011;10059;59.850;10.454;2023-05-10T01:17:40;12.97;;;5.03;;
19798;SDS011;10059;59.850;10.454;2023-05-10T01:20:09;17.03;;;5.70;;
19798;SDS011;10059;59.850;10.454;2023-05-10T01:22:45;17.43;;;5.20;;
19798;SDS011;10059;59.850;10.454;2023-05-10T01:28:44;17.40;;;5.37;;
19798;SDS011;10059;59.850;10.454;2023-05-10T01:31:55;11.90;;;4.93;;
19798;SDS011;10059;59.850;10.454;2023-05-10T01:34:34;23.03;;;5.73;;
19798;SDS011;10059;59.850;10.454;2023-05-10T01:37:06;15.10;;;5.63;;
19798;SDS011;10059;59.850;10.454;2023-05-10T01:39:39;18.03;;;5.33;;
19798;SDS011;10059;59.850;10.454;2023-05-10T01:42:14;16.07;;;5.33;;
19798;SDS011;10059;59.850;10.454;2023-05-10T01:44:46;13.37;;;5.50;;
19798;SDS011;10059;59.850;10.454;2023-05-10T01:47:35;11.13;;;5.13;;
19798;SDS011;10059;59.850;10.454;2023-05-10T01:50:06;16.10;;;5.53;;
19798;SDS011;10059;59.850;10.454;2023-05-10T01:52:41;15.00;;;4.90;;
19798;SDS011;10059;59.850;10.454;2023-05-10T01:55:13;18.17;;;5.50;;
19798;SDS011;10059;59.850;10.454;2023-05-10T01:57:42;17.80;;;5.60;;
19798;SDS011;10059;59.850;10.454;2023-05-10T02:00:12;16.27;;;5.20;;
19798;SDS011;10059;59.850;10.454;2023-05-10T02:02:44;16.03;;;5.57;;
19798;SDS011;10059;59.850;10.454;2023-05-10T02:05:12;18.97;;;5.03;;
19798;SDS011;10059;59.850;10.454;2023-05-10T02:07:41;13.57;;;4.87;;
19798;SDS011;10059;59.850;10.454;2023-05-10T02:10:09;15.50;;;5.60;;
19798;SDS011;10059;59.850;10.454;2023-05-10T02:12:39;18.70;;;5.10;;
19798;SDS011;10059;59.850;10.454;2023-05-10T02:15:08;14.77;;;4.97;;
19798;SDS011;10059;59.850;10.454;2023-05-10T02:17:37;12.30;;;5.00;;
19798;SDS011;10059;59.850;10.454;2023-05-10T02:20:07;13.47;;;5.00;;
19798;SDS011;10059;59.850;10.454;2023-05-10T02:22:35;20.13;;;5.57;;
19798;SDS011;10059;59.850;10.454;2023-05-10T02:25:04;21.30;;;5.87;;
19798;SDS011;10059;59.850;10.454;2023-05-10T02:27:32;11.57;;;5.00;;
19798;SDS011;10059;59.850;10.454;2023-05-10T02:30:01;12.40;;;4.93;;
19798;SDS011;10059;59.850;10.454;2023-05-10T02:32:28;14.53;;;4.97;;
19798;SDS011;10059;59.850;10.454;2023-05-10T02:34:55;12.60;;;4.50;;
19798;SDS011;10059;59.850;10.454;2023-05-10T02:37:26;11.77;;;5.20;;
19798;SDS011;10059;59.850;10.454;2023-05-10T02:39:53;14.07;;;5.10;;
19798;SDS011;10059;59.850;10.454;2023-05-10T02:42:23;18.03;;;5.70;;
19798;SDS011;10059;59.850;10.454;2023-05-10T02:44:52;14.80;;;4.93;;
19798;SDS011;10059;59.850;10.454;2023-05-10T02:47:20;11.73;;;5.23;;
19798;SDS011;10059;59.850;10.454;2023-05-10T02:49:47;15.30;;;4.80;;
19798;SDS011;10059;59.850;10.454;2023-05-10T02:52:15;12.60;;;5.00;;
19798;SDS011;10059;59.850;10.454;2023-05-10T02:54:50;13.57;;;5.17;;
19798;SDS011;10059;59.850;10.454;2023-05-10T02:57:21;12.97;;;5.27;;
19798;SDS011;10059;59.850;10.454;2023-05-10T02:59:52;15.17;;;5.03;;
19798;SDS011;10059;59.850;10.454;2023-05-10T03:02:20;14.60;;;4.70;;
19798;SDS011;10059;59.850;10.454;2023-05-10T03:04:46;13.90;;;5.27;;
19798;SDS011;10059;59.850;10.454;2023-05-10T03:07:13;16.67;;;5.13;;
19798;SDS011;10059;59.850;10.454;2023-05-10T03:09:41;12.33;;;5.10;;
19798;SDS011;10059;59.850;10.454;2023-05-10T03:12:11;12.70;;;4.77;;
19798;SDS011;10059;59.850;10.454;2023-05-10T03:14:45;15.77;;;5.20;;
19798;SDS011;10059;59.850;10.454;2023-05-10T03:17:21;14.80;;;5.07;;
19798;SDS011;10059;59.850;10.454;2023-05-10T03:19:53;13.40;;;4.90;;
19798;SDS011;10059;59.850;10.454;2023-05-10T03:22:23;13.23;;;4.93;;
19798;SDS011;10059;59.850;10.454;2023-05-10T03:24:53;15.43;;;4.77;;
19798;SDS011;10059;59.850;10.454;2023-05-10T03:27:25;15.17;;;4.80;;
19798;SDS011;10059;59.850;10.454;2023-05-10T03:29:53;11.97;;;4.60;;
19798;SDS011;10059;59.850;10.454;2023-05-10T03:32:22;12.93;;;4.90;;
19798;SDS011;10059;59.850;10.454;2023-05-10T03:34:49;13.80;;;4.53;;
19798;SDS011;10059;59.850;10.454;2023-05-10T03:37:16;15.07;;;4.67;;
19798;SDS011;10059;59.850;10.454;2023-05-10T03:39:42;13.57;;;4.50;;
19798;SDS011;10059;59.850;10.454;2023-05-10T03:42:09;15.13;;;5.40;;
19798;SDS011;10059;59.850;10.454;2023-05-10T03:44:38;12.80;;;5.03;;
19798;SDS011;10059;59.850;10.454;2023-05-10T03:47:05;12.53;;;4.50;;
19798;SDS011;10059;59.850;10.454;2023-05-10T03:49:32;14.67;;;4.70;;
19798;SDS011;10059;59.850;10.454;2023-05-10T03:51:59;16.13;;;4.73;;
19798;SDS011;10059;59.850;10.454;2023-05-10T03:54:26;10.70;;;4.50;;
19798;SDS011;10059;59.850;10.454;2023-05-10T03:56:52;15.67;;;4.40;;
19798;SDS011;10059;59.850;10.454;2023-05-10T03:59:19;8.97;;;4.47;;
19798;SDS011;10059;59.850;10.454;2023-05-10T04:01:47;11.73;;;4.17;;
19798;SDS011;10059;59.850;10.454;2023-05-10T04:04:14;13.33;;;4.47;;
19798;SDS011;10059;59.850;10.454;2023-05-10T04:06:43;14.73;;;4.70;;
19798;SDS011;10059;59.850;10.454;2023-05-10T04:09:10;9.37;;;4.40;;
19798;SDS011;10059;59.850;10.454;2023-05-10T04:11:37;12.87;;;4.17;;
19798;SDS011;10059;59.850;10.454;2023-05-10T04:14:04;13.17;;;4.37;;
19798;SDS011;10059;59.850;10.454;2023-05-10T04:16:30;12.13;;;4.90;;
19798;SDS011;10059;59.850;10.454;2023-05-10T04:18:59;10.97;;;4.40;;
19798;SDS011;10059;59.850;10.454;2023-05-10T04:21:25;10.07;;;3.83;;
19798;SDS011;10059;59.850;10.454;2023-05-10T04:23:52;7.47;;;4.30;;
19798;SDS011;10059;59.850;10.454;2023-05-10T04:26:19;15.00;;;4.23;;
19798;SDS011;10059;59.850;10.454;2023-05-10T04:28:47;10.47;;;4.67;;
19798;SDS011;10059;59.850;10.454;2023-05-10T04:31:13;11.20;;;4.20;;
19798;SDS011;10059;59.850;10.454;2023-05-10T04:33:40;11.80;;;4.10;;
19798;SDS011;10059;59.850;10.454;2023-05-10T04:36:09;11.07;;;4.17;;
19798;SDS011;10059;59.850;10.454;2023-05-10T04:38:35;10.70;;;4.47;;
19798;SDS011;10059;59.850;10.454;2023-05-10T04:41:05;15.20;;;4.13;;
19798;SDS011;10059;59.850;10.454;2023-05-10T04:43:33;9.33;;;4.07;;
19798;SDS011;10059;59.850;10.454;2023-05-10T04:46:00;8.93;;;3.97;;
19798;SDS011;10059;59.850;10.454;2023-05-10T04:48:27;12.57;;;4.00;;
19798;SDS011;10059;59.850;10.454;2023-05-10T04:50:53;15.70;;;4.23;;
19798;SDS011;10059;59.850;10.454;2023-05-10T04:53:22;15.23;;;4.27;;
19798;SDS011;10059;59.850;10.454;2023-05-10T04:55:49;13.87;;;3.93;;
19798;SDS011;10059;59.850;10.454;2023-05-10T04:58:15;9.47;;;4.23;;
19798;SDS011;10059;59.850;10.454;2023-05-10T05:00:42;6.53;;;3.73;;
19798;SDS011;10059;59.850;10.454;2023-05-10T05:03:10;11.80;;;3.73;;
19798;SDS011;10059;59.850;10.454;2023-05-10T05:05:36;17.97;;;4.03;;
19798;SDS011;10059;59.850;10.454;2023-05-10T05:08:03;13.73;;;3.90;;
19798;SDS011;10059;59.850;10.454;2023-05-10T05:10:31;15.67;;;4.10;;
19798;SDS011;10059;59.850;10.454;2023-05-10T05:12:58;12.50;;;3.97;;
19798;SDS011;10059;59.850;10.454;2023-05-10T05:15:25;17.10;;;3.80;;
19798;SDS011;10059;59.850;10.454;2023-05-10T05:17:52;21.00;;;4.10;;
19798;SDS011;10059;59.850;10.454;2023-05-10T05:20:19;12.50;;;4.00;;
19798;SDS011;10059;59.850;10.454;2023-05-10T05:22:46;15.53;;;4.23;;
19798;SDS011;10059;59.850;10.454;2023-05-10T05:25:13;10.00;;;4.07;;
19798;SDS011;10059;59.850;10.454;2023-05-10T05:27:41;21.37;;;4.50;;
19798;SDS011;10059;59.850;10.454;2023-05-10T05:30:08;11.93;;;4.00;;
19798;SDS011;10059;59.850;10.454;2023-05-10T05:32:36;12.83;;;4.10;;
19798;SDS011;10059;59.850;10.454;2023-05-10T05:35:03;10.93;;;3.80;;
19798;SDS011;10059;59.850;10.454;2023-05-10T05:37:30;12.00;;;4.23;;
19798;SDS011;10059;59.850;10.454;2023-05-10T05:39:57;11.53;;;3.77;;
19798;SDS011;10059;59.850;10.454;2023-05-10T05:42:26;11.77;;;4.63;;
19798;SDS011;10059;59.850;10.454;2023-05-10T05:44:54;14.00;;;4.50;;
19798;SDS011;10059;59.850;10.454;2023-05-10T05:47:21;12.53;;;4.20;;
19798;SDS011;10059;59.850;10.454;2023-05-10T05:49:48;16.80;;;4.50;;
19798;SDS011;10059;59.850;10.454;2023-05-10T05:52:15;10.53;;;4.20;;
19798;SDS011;10059;59.850;10.454;2023-05-10T05:54:41;16.90;;;4.40;;
19798;SDS011;10059;59.850;10.454;2023-05-10T05:57:08;13.93;;;4.30;;
19798;SDS011;10059;59.850;10.454;2023-05-10T05:59:35;15.60;;;4.00;;
19798;SDS011;10059;59.850;10.454;2023-05-10T06:02:08;15.47;;;4.20;;
19798;SDS011;10059;59.850;10.454;2023-05-10T06:04:35;10.73;;;3.70;;
19798;SDS011;10059;59.850;10.454;2023-05-10T06:07:02;12.90;;;3.87;;
19798;SDS011;10059;59.850;10.454;2023-05-10T06:09:28;16.83;;;4.20;;
19798;SDS011;10059;59.850;10.454;2023-05-10T06:11:55;11.97;;;4.23;;
19798;SDS011;10059;59.850;10.454;2023-05-10T06:14:22;14.43;;;4.40;;
19798;SDS011;10059;59.850;10.454;2023-05-10T06:16:49;13.50;;;4.07;;
19798;SDS011;10059;59.850;10.454;2023-05-10T06:19:17;12.27;;;4.00;;
19798;SDS011;10059;59.850;10.454;2023-05-10T06:21:44;8.90;;;4.10;;
19798;SDS011;10059;59.850;10.454;2023-05-10T06:24:11;10.40;;;3.93;;
19798;SDS011;10059;59.850;10.454;2023-05-10T06:26:38;20.40;;;4.70;;
19798;SDS011;10059;59.850;10.454;2023-05-10T06:29:04;10.30;;;4.30;;
19798;SDS011;10059;59.850;10.454;2023-05-10T06:31:31;13.60;;;4.63;;
19798;SDS011;10059;59.850;10.454;2023-05-10T06:33:58;10.93;;;4.60;;
19798;SDS011;10059;59.850;10.454;2023-05-10T06:36:26;10.33;;;3.83;;
19798;SDS011;10059;59.850;10.454;2023-05-10T06:38:53;11.97;;;4.17;;
19798;SDS011;10059;59.850;10.454;2023-05-10T06:41:20;10.87;;;3.90;;
19798;SDS011;10059;59.850;10.454;2023-05-10T06:43:47;9.43;;;3.80;;
19798;SDS011;10059;59.850;10.454;2023-05-10T06:46:14;14.87;;;4.20;;
19798;SDS011;10059;59.850;10.454;2023-05-10T06:48:40;10.40;;;3.60;;
19798;SDS011;10059;59.850;10.454;2023-05-10T06:51:07;6.77;;;3.90;;
19798;SDS011;10059;59.850;10.454;2023-05-10T06:53:35;11.40;;;4.47;;
19798;SDS011;10059;59.850;10.454;2023-05-10T06:56:03;7.80;;;3.80;;
19798;SDS011;10059;59.850;10.454;2023-05-10T06:58:30;4.40;;;3.40;;
19798;SDS011;10059;59.850;10.454;2023-05-10T07:01:01;6.60;;;3.70;;
19798;SDS011;10059;59.850;10.454;2023-05-10T07:03:29;14.07;;;4.00;;
19798;SDS011;10059;59.850;10.454;2023-05-10T07:05:59;7.47;;;3.60;;
19798;SDS011;10059;59.850;10.454;2023-05-10T07:08:29;10.03;;;4.03;;
19798;SDS011;10059;59.850;10.454;2023-05-10T07:11:00;9.33;;;3.47;;
19798;SDS011;10059;59.850;10.454;2023-05-10T07:13:28;10.57;;;3.70;;
19798;SDS011;10059;59.850;10.454;2023-05-10T07:15:55;9.97;;;3.70;;
19798;SDS011;10059;59.850;10.454;2023-05-10T07:18:22;5.53;;;3.80;;
19798;SDS011;10059;59.850;10.454;2023-05-10T07:20:49;6.97;;;3.60;;
19798;SDS011;10059;59.850;10.454;2023-05-10T07:23:15;7.87;;;3.67;;
19798;SDS011;10059;59.850;10.454;2023-05-10T07:25:44;9.60;;;3.53;;
19798;SDS011;10059;59.850;10.454;2023-05-10T07:28:13;7.57;;;3.83;;
19798;SDS011;10059;59.850;10.454;2023-05-10T07:30:41;6.60;;;4.07;;
19798;SDS011;10059;59.850;10.454;2023-05-10T07:33:08;8.37;;;3.63;;
19798;SDS011;10059;59.850;10.454;2023-05-10T07:35:36;7.00;;;3.47;;
19798;SDS011;10059;59.850;10.454;2023-05-10T07:38:03;11.33;;;3.90;;
19798;SDS011;10059;59.850;10.454;2023-05-10T07:40:30;7.57;;;3.57;;
19798;SDS011;10059;59.850;10.454;2023-05-10T07:42:57;7.43;;;3.37;;
19798;SDS011;10059;59.850;10.454;2023-05-10T07:45:26;5.47;;;3.70;;
19798;SDS011;10059;59.850;10.454;2023-05-10T07:47:53;6.47;;;3.53;;
19798;SDS011;10059;59.850;10.454;2023-05-10T07:50:20;6.37;;;3.80;;
19798;SDS011;10059;59.850;10.454;2023-05-10T07:52:47;9.07;;;3.60;;
19798;SDS011;10059;59.850;10.454;2023-05-10T07:55:14;8.77;;;3.87;;
19798;SDS011;10059;59.850;10.454;2023-05-10T07:57:41;8.17;;;3.73;;
19798;SDS011;10059;59.850;10.454;2023-05-10T08:00:08;8.33;;;3.83;;
19798;SDS011;10059;59.850;10.454;2023-05-10T08:02:39;7.37;;;3.63;;
19798;SDS011;10059;59.850;10.454;2023-05-10T08:05:07;9.40;;;3.80;;
19798;SDS011;10059;59.850;10.454;2023-05-10T08:07:34;7.70;;;3.60;;
19798;SDS011;10059;59.850;10.454;2023-05-10T08:10:01;8.23;;;3.50;;
19798;SDS011;10059;59.850;10.454;2023-05-10T08:12:28;5.90;;;3.70;;
19798;SDS011;10059;59.850;10.454;2023-05-10T08:14:55;9.03;;;3.70;;
19798;SDS011;10059;59.850;10.454;2023-05-10T08:17:22;8.07;;;3.60;;
19798;SDS011;10059;59.850;10.454;2023-05-10T08:19:50;6.97;;;3.57;;
19798;SDS011;10059;59.850;10.454;2023-05-10T08:22:17;9.33;;;3.83;;
19798;SDS011;10059;59.850;10.454;2023-05-10T08:24:44;9.13;;;3.73;;
19798;SDS011;10059;59.850;10.454;2023-05-10T08:27:11;6.47;;;3.50;;
19798;SDS011;10059;59.850;10.454;2023-05-10T08:29:38;7.23;;;3.70;;
19798;SDS011;10059;59.850;10.454;2023-05-10T08:32:05;9.93;;;3.70;;
19798;SDS011;10059;59.850;10.454;2023-05-10T08:34:31;12.90;;;3.87;;
19798;SDS011;10059;59.850;10.454;2023-05-10T08:37:00;7.73;;;3.77;;
19798;SDS011;10059;59.850;10.454;2023-05-10T08:39:26;7.13;;;3.97;;
19798;SDS011;10059;59.850;10.454;2023-05-10T08:41:53;18.07;;;3.93;;
19798;SDS011;10059;59.850;10.454;2023-05-10T08:44:25;6.27;;;3.43;;
19798;SDS011;10059;59.850;10.454;2023-05-10T08:46:53;7.73;;;3.57;;
19798;SDS011;10059;59.850;10.454;2023-05-10T08:49:21;9.50;;;3.80;;
19798;SDS011;10059;59.850;10.454;2023-05-10T08:51:49;6.67;;;3.87;;
19798;SDS011;10059;59.850;10.454;2023-05-10T08:54:19;11.77;;;3.70;;
19798;SDS011;10059;59.850;10.454;2023-05-10T08:56:47;6.60;;;3.50;;
19798;SDS011;10059;59.850;10.454;2023-05-10T08:59:14;7.37;;;3.63;;
19798;SDS011;10059;59.850;10.454;2023-05-10T09:01:41;11.53;;;3.83;;
19798;SDS011;10059;59.850;10.454;2023-05-10T09:04:09;8.57;;;4.13;;
19798;SDS011;10059;59.850;10.454;2023-05-10T09:06:37;5.77;;;3.80;;
19798;SDS011;10059;59.850;10.454;2023-05-10T09:09:04;8.67;;;4.10;;
19798;SDS011;10059;59.850;10.454;2023-05-10T09:11:32;10.67;;;3.90;;
19798;SDS011;10059;59.850;10.454;2023-05-10T09:14:00;10.23;;;3.90;;
19798;SDS011;10059;59.850;10.454;2023-05-10T09:16:27;8.10;;;3.87;;
19798;SDS011;10059;59.850;10.454;2023-05-10T09:18:54;7.30;;;4.17;;
19798;SDS011;10059;59.850;10.454;2023-05-10T09:21:22;7.37;;;4.03;;
19798;SDS011;10059;59.850;10.454;2023-05-10T09:23:48;6.90;;;3.87;;
19798;SDS011;10059;59.850;10.454;2023-05-10T09:26:16;7.90;;;3.90;;
19798;SDS011;10059;59.850;10.454;2023-05-10T09:28:52;7.57;;;4.10;;
19798;SDS011;10059;59.850;10.454;2023-05-10T09:31:20;13.97;;;3.70;;
19798;SDS011;10059;59.850;10.454;2023-05-10T09:33:47;5.33;;;3.67;;
19798;SDS011;10059;59.850;10.454;2023-05-10T09:36:15;10.70;;;3.67;;
19798;SDS011;10059;59.850;10.454;2023-05-10T09:38:46;7.13;;;4.00;;
19798;SDS011;10059;59.850;10.454;2023-05-10T09:41:17;6.07;;;3.80;;
19798;SDS011;10059;59.850;10.454;2023-05-10T09:43:45;8.43;;;3.83;;
19798;SDS011;10059;59.850;10.454;2023-05-10T09:46:13;9.20;;;4.10;;
19798;SDS011;10059;59.850;10.454;2023-05-10T09:48:41;10.33;;;3.80;;
19798;SDS011;10059;59.850;10.454;2023-05-10T09:51:09;8.80;;;3.70;;
19798;SDS011;10059;59.850;10.454;2023-05-10T09:53:36;5.47;;;3.73;;
19798;SDS011;10059;59.850;10.454;2023-05-10T09:56:03;8.77;;;4.00;;
19798;SDS011;10059;59.850;10.454;2023-05-10T09:58:30;6.67;;;4.03;;
19798;SDS011;10059;59.850;10.454;2023-05-10T10:00:57;8.97;;;3.93;;
19798;SDS011;10059;59.850;10.454;2023-05-10T10:03:25;6.70;;;3.80;;
19798;SDS011;10059;59.850;10.454;2023-05-10T10:05:54;9.33;;;3.87;;
19798;SDS011;10059;59.850;10.454;2023-05-10T10:08:21;9.03;;;3.67;;
19798;SDS011;10059;59.850;10.454;2023-05-10T10:10:49;7.47;;;3.83;;
19798;SDS011;10059;59.850;10.454;2023-05-10T10:13:15;7.03;;;4.00;;
19798;SDS011;10059;59.850;10.454;2023-05-10T10:15:43;12.30;;;4.20;;
19798;SDS011;10059;59.850;10.454;2023-05-10T10:18:12;7.73;;;4.10;;
19798;SDS011;10059;59.850;10.454;2023-05-10T10:20:41;13.77;;;3.83;;
19798;SDS011;10059;59.850;10.454;2023-05-10T10:23:08;8.47;;;3.70;;
19798;SDS011;10059;59.850;10.454;2023-05-10T10:25:35;8.73;;;4.20;;
19798;SDS011;10059;59.850;10.454;2023-05-10T10:28:07;9.47;;;3.67;;
19798;SDS011;10059;59.850;10.454;2023-05-10T10:30:41;10.90;;;3.80;;
19798;SDS011;10059;59.850;10.454;2023-05-10T10:33:22;6.17;;;3.63;;
19798;SDS011;10059;59.850;10.454;2023-05-10T10:36:01;10.33;;;4.03;;
19798;SDS011;10059;59.850;10.454;2023-05-10T10:38:35;7.83;;;3.87;;
19798;SDS011;10059;59.850;10.454;2023-05-10T10:41:08;11.47;;;3.50;;
19798;SDS011;10059;59.850;10.454;2023-05-10T10:43:36;7.47;;;3.90;;
19798;SDS011;10059;59.850;10.454;2023-05-10T10:46:10;6.20;;;3.57;;
19798;SDS011;10059;59.850;10.454;2023-05-10T10:48:38;6.70;;;3.40;;
19798;SDS011;10059;59.850;10.454;2023-05-10T10:51:07;11.10;;;3.93;;
19798;SDS011;10059;59.850;10.454;2023-05-10T10:53:34;8.60;;;3.80;;
19798;SDS011;10059;59.850;10.454;2023-05-10T10:56:06;6.97;;;3.43;;
19798;SDS011;10059;59.850;10.454;2023-05-10T10:58:35;10.63;;;3.67;;
19798;SDS011;10059;59.850;10.454;2023-05-10T11:01:13;6.77;;;3.57;;
19798;SDS011;10059;59.850;10.454;2023-05-10T11:03:41;6.80;;;3.50;;
19798;SDS011;10059;59.850;10.454;2023-05-10T11:06:42;10.70;;;3.90;;
19798;SDS011;10059;59.850;10.454;2023-05-10T11:09:10;7.57;;;3.77;;
19798;SDS011;10059;59.850;10.454;2023-05-10T11:11:48;7.03;;;4.07;;
19798;SDS011;10059;59.850;10.454;2023-05-10T11:14:17;9.50;;;3.70;;
19798;SDS011;10059;59.850;10.454;2023-05-10T11:16:46;9.17;;;3.73;;
19798;SDS011;10059;59.850;10.454;2023-05-10T11:19:13;7.03;;;3.60;;
19798;SDS011;10059;59.850;10.454;2023-05-10T11:21:46;5.47;;;3.90;;
19798;SDS011;10059;59.850;10.454;2023-05-10T11:24:14;9.40;;;4.07;;
19798;SDS011;10059;59.850;10.454;2023-05-10T11:26:42;11.57;;;4.00;;
19798;SDS011;10059;59.850;10.454;2023-05-10T11:29:09;11.13;;;3.83;;
19798;SDS011;10059;59.850;10.454;2023-05-10T11:31:41;8.37;;;4.20;;
19798;SDS011;10059;59.850;10.454;2023-05-10T11:34:09;9.37;;;3.63;;
19798;SDS011;10059;59.850;10.454;2023-05-10T11:36:37;12.40;;;3.57;;
19798;SDS011;10059;59.850;10.454;2023-05-10T11:39:05;6.00;;;3.70;;
19798;SDS011;10059;59.850;10.454;2023-05-10T11:41:33;7.83;;;4.10;;
19798;SDS011;10059;59.850;10.454;2023-05-10T11:44:00;6.70;;;3.53;;
19798;SDS011;10059;59.850;10.454;2023-05-10T11:46:28;13.83;;;4.17;;
19798;SDS011;10059;59.850;10.454;2023-05-10T11:48:57;9.20;;;3.73;;
19798;SDS011;10059;59.850;10.454;2023-05-10T11:51:26;9.00;;;3.70;;
19798;SDS011;10059;59.850;10.454;2023-05-10T11:53:54;7.47;;;3.73;;
19798;SDS011;10059;59.850;10.454;2023-05-10T11:56:23;7.77;;;3.80;;
19798;SDS011;10059;59.850;10.454;2023-05-10T11:58:52;11.33;;;4.03;;
19798;SDS011;10059;59.850;10.454;2023-05-10T12:01:20;9.20;;;3.50;;
19798;SDS011;10059;59.850;10.454;2023-05-10T12:03:48;8.03;;;3.80;;
19798;SDS011;10059;59.850;10.454;2023-05-10T12:06:15;8.37;;;4.07;;
19798;SDS011;10059;59.850;10.454;2023-05-10T12:08:44;8.73;;;3.90;;
19798;SDS011;10059;59.850;10.454;2023-05-10T12:11:11;5.40;;;3.93;;
19798;SDS011;10059;59.850;10.454;2023-05-10T12:13:42;8.37;;;3.70;;
19798;SDS011;10059;59.850;10.454;2023-05-10T12:16:15;9.03;;;3.83;;
19798;SDS011;10059;59.850;10.454;2023-05-10T12:18:43;8.70;;;3.80;;
19798;SDS011;10059;59.850;10.454;2023-05-10T12:21:11;7.07;;;3.70;;
19798;SDS011;10059;59.850;10.454;2023-05-10T12:23:38;7.40;;;3.97;;
19798;SDS011;10059;59.850;10.454;2023-05-10T12:26:05;6.53;;;3.70;;
19798;SDS011;10059;59.850;10.454;2023-05-10T12:28:32;7.40;;;3.90;;
19798;SDS011;10059;59.850;10.454;2023-05-10T12:31:01;6.47;;;3.93;;
19798;SDS011;10059;59.850;10.454;2023-05-10T12:33:35;7.67;;;3.90;;
19798;SDS011;10059;59.850;10.454;2023-05-10T12:36:04;7.60;;;4.07;;
19798;SDS011;10059;59.850;10.454;2023-05-10T12:38:32;4.97;;;3.40;;
19798;SDS011;10059;59.850;10.454;2023-05-10T12:41:01;8.50;;;3.60;;
19798;SDS011;10059;59.850;10.454;2023-05-10T12:43:28;10.97;;;4.10;;
19798;SDS011;10059;59.850;10.454;2023-05-10T12:45:55;8.50;;;3.77;;
19798;SDS011;10059;59.850;10.454;2023-05-10T12:48:24;9.87;;;3.83;;
19798;SDS011;10059;59.850;10.454;2023-05-10T12:50:53;6.10;;;3.83;;
19798;SDS011;10059;59.850;10.454;2023-05-10T12:53:20;5.87;;;3.50;;
19798;SDS011;10059;59.850;10.454;2023-05-10T12:55:47;4.53;;;3.60;;
19798;SDS011;10059;59.850;10.454;2023-05-10T12:58:14;7.67;;;3.90;;
19798;SDS011;10059;59.850;10.454;2023-05-10T13:00:40;7.43;;;3.80;;
19798;SDS011;10059;59.850;10.454;2023-05-10T13:03:08;11.53;;;3.90;;
19798;SDS011;10059;59.850;10.454;2023-05-10T13:05:37;8.87;;;3.77;;
19798;SDS011;10059;59.850;10.454;2023-05-10T13:08:04;5.43;;;3.33;;
19798;SDS011;10059;59.850;10.454;2023-05-10T13:10:31;7.33;;;4.00;;
19798;SDS011;10059;59.850;10.454;2023-05-10T13:12:58;6.27;;;3.93;;
19798;SDS011;10059;59.850;10.454;2023-05-10T13:15:25;9.23;;;3.87;;
19798;SDS011;10059;59.850;10.454;2023-05-10T13:17:52;5.37;;;3.63;;
19798;SDS011;10059;59.850;10.454;2023-05-10T13:20:20;8.37;;;3.63;;
19798;SDS011;10059;59.850;10.454;2023-05-10T13:22:48;5.23;;;3.60;;
19798;SDS011;10059;59.850;10.454;2023-05-10T13:25:15;10.83;;;3.50;;
19798;SDS011;10059;59.850;10.454;2023-05-10T13:27:42;7.60;;;3.70;;
19798;SDS011;10059;59.850;10.454;2023-05-10T13:30:09;9.30;;;3.57;;
19798;SDS011;10059;59.850;10.454;2023-05-10T13:32:37;6.87;;;3.70;;
19798;SDS011;10059;59.850;10.454;2023-05-10T13:35:05;8.00;;;3.80;;
19798;SDS011;10059;59.850;10.454;2023-05-10T13:37:32;9.00;;;3.67;;
19798;SDS011;10059;59.850;10.454;2023-05-10T13:40:02;8.73;;;4.10;;
19798;SDS011;10059;59.850;10.454;2023-05-10T13:42:29;9.47;;;3.87;;
19798;SDS011;10059;59.850;10.454;2023-05-10T13:44:56;13.27;;;3.60;;
19798;SDS011;10059;59.850;10.454;2023-05-10T13:47:23;10.27;;;3.70;;
19798;SDS011;10059;59.850;10.454;2023-05-10T13:49:50;10.73;;;3.63;;
19798;SDS011;10059;59.850;10.454;2023-05-10T13:52:17;9.67;;;3.60;;
19798;SDS011;10059;59.850;10.454;2023-05-10T13:54:44;9.77;;;3.70;;
19798;SDS011;10059;59.850;10.454;2023-05-10T13:57:12;6.07;;;3.50;;
19798;SDS011;10059;59.850;10.454;2023-05-10T13:59:41;9.30;;;3.63;;
19798;SDS011;10059;59.850;10.454;2023-05-10T14:02:08;6.83;;;3.77;;
19798;SDS011;10059;59.850;10.454;2023-05-10T14:04:35;10.90;;;3.93;;
19798;SDS011;10059;59.850;10.454;2023-05-10T14:07:02;6.97;;;3.50;;
19798;SDS011;10059;59.850;10.454;2023-05-10T14:09:29;11.07;;;3.70;;
19798;SDS011;10059;59.850;10.454;2023-05-10T14:11:56;8.97;;;3.87;;
19798;SDS011;10059;59.850;10.454;2023-05-10T14:14:25;8.53;;;3.70;;
19798;SDS011;10059;59.850;10.454;2023-05-10T14:16:53;6.93;;;3.67;;
19798;SDS011;10059;59.850;10.454;2023-05-10T14:19:20;4.97;;;3.27;;
19798;SDS011;10059;59.850;10.454;2023-05-10T14:21:46;8.23;;;3.50;;
19798;SDS011;10059;59.850;10.454;2023-05-10T14:24:13;4.80;;;3.67;;
19798;SDS011;10059;59.850;10.454;2023-05-10T14:26:40;6.97;;;3.83;;
19798;SDS011;10059;59.850;10.454;2023-05-10T14:29:07;6.97;;;3.93;;
19798;SDS011;10059;59.850;10.454;2023-05-10T14:31:35;8.10;;;3.97;;
19798;SDS011;10059;59.850;10.454;2023-05-10T14:34:02;10.60;;;3.87;;
19798;SDS011;10059;59.850;10.454;2023-05-10T14:36:29;5.23;;;3.40;;
19798;SDS011;10059;59.850;10.454;2023-05-10T14:38:56;5.07;;;3.63;;